createdAt,value
2022-10-31T00:01:16.739Z,90.20
2022-10-31T00:03:43.522Z,90.70
2022-10-31T00:06:10.517Z,90.70
2022-10-31T00:08:37.257Z,91.10
2022-10-31T00:11:04.140Z,91.20
2022-10-31T00:13:30.825Z,91.10
2022-10-31T00:15:57.574Z,91.40
2022-10-31T00:18:24.330Z,91.50
2022-10-31T00:21:00.430Z,91.80
2022-10-31T00:23:27.301Z,92.00
2022-10-31T00:25:54.034Z,91.70
2022-10-31T00:28:20.757Z,91.40
2022-10-31T00:30:47.474Z,91.10
2022-10-31T00:33:14.228Z,91.30
2022-10-31T00:35:40.970Z,91.30
2022-10-31T00:38:07.688Z,91.00
2022-10-31T00:40:34.420Z,91.10
2022-10-31T00:43:01.551Z,90.90
2022-10-31T00:45:28.679Z,90.60
2022-10-31T00:47:55.395Z,90.40
2022-10-31T00:50:22.186Z,90.00
2022-10-31T00:52:48.871Z,89.40
2022-10-31T00:55:15.625Z,89.10
2022-10-31T00:57:42.373Z,88.30
2022-10-31T01:00:10.107Z,87.80
2022-10-31T01:02:37.048Z,87.80
2022-10-31T01:05:04.031Z,87.80
2022-10-31T01:07:30.795Z,87.50
2022-10-31T01:09:57.539Z,86.80
2022-10-31T01:12:24.272Z,87.20
2022-10-31T01:14:50.991Z,87.90
2022-10-31T01:17:17.712Z,88.00
2022-10-31T01:19:45.664Z,88.00
2022-10-31T01:22:12.418Z,88.00
2022-10-31T01:24:39.169Z,89.20
2022-10-31T01:27:05.878Z,89.50
2022-10-31T01:29:32.605Z,90.10
2022-10-31T01:31:59.287Z,90.30
2022-10-31T01:34:26.038Z,90.50
2022-10-31T01:36:53.020Z,90.90
2022-10-31T01:39:20.462Z,91.40
2022-10-31T01:41:52.896Z,91.40
2022-10-31T01:44:19.595Z,91.50
2022-10-31T01:46:52.874Z,91.60
2022-10-31T01:49:44.026Z,91.30
2022-10-31T01:52:36.437Z,91.00
2022-10-31T01:55:07.893Z,91.00
2022-10-31T01:57:36.437Z,90.90
2022-10-31T02:00:07.646Z,90.60
2022-10-31T02:02:34.484Z,90.60
2022-10-31T02:05:05.489Z,90.40
2022-10-31T02:07:48.593Z,90.30
2022-10-31T02:10:16.248Z,90.30
2022-10-31T02:12:43.817Z,90.00
2022-10-31T02:15:10.861Z,89.10
2022-10-31T02:17:37.747Z,88.70
2022-10-31T02:20:23.928Z,88.90
2022-10-31T02:23:21.835Z,88.80
2022-10-31T02:26:13.286Z,88.00
2022-10-31T02:29:01.532Z,87.20
2022-10-31T02:31:55.460Z,87.80
2022-10-31T02:34:31.916Z,88.20
2022-10-31T02:37:06.291Z,89.00
2022-10-31T02:39:44.970Z,89.40
2022-10-31T02:42:21.262Z,88.90
2022-10-31T02:45:01.432Z,88.90
2022-10-31T02:47:31.074Z,89.20
2022-10-31T02:50:00.371Z,89.20
2022-10-31T02:52:29.568Z,89.00
2022-10-31T02:54:56.455Z,88.90
2022-10-31T02:57:34.673Z,88.70
2022-10-31T03:00:09.333Z,87.80
2022-10-31T03:02:50.563Z,87.70
2022-10-31T03:05:38.521Z,86.80
2022-10-31T03:08:14.136Z,86.40
2022-10-31T03:10:57.825Z,86.80
2022-10-31T03:13:27.535Z,87.40
2022-10-31T03:16:16.954Z,86.80
2022-10-31T03:18:49.840Z,85.90
2022-10-31T03:21:35.048Z,86.00
2022-10-31T03:24:03.077Z,85.70
2022-10-31T03:26:30.743Z,85.70
2022-10-31T03:29:08.872Z,85.20
2022-10-31T03:31:40.658Z,85.70
2022-10-31T03:34:09.735Z,86.10
2022-10-31T03:36:40.649Z,86.80
2022-10-31T03:39:12.236Z,87.30
2022-10-31T03:41:44.265Z,87.10
2022-10-31T03:44:21.777Z,87.70
2022-10-31T03:46:48.531Z,87.70
2022-10-31T03:49:16.353Z,87.60
2022-10-31T03:51:57.562Z,87.70
2022-10-31T03:54:33.500Z,87.70
2022-10-31T03:57:17.929Z,87.60
2022-10-31T03:59:49.292Z,88.10
2022-10-31T04:02:19.637Z,88.10
2022-10-31T04:04:49.598Z,87.60
2022-10-31T04:07:18.621Z,87.50
2022-10-31T04:09:47.446Z,86.90
2022-10-31T04:12:16.953Z,86.90
2022-10-31T04:14:47.479Z,86.10
2022-10-31T04:17:17.395Z,85.50
2022-10-31T04:19:44.255Z,84.30
2022-10-31T04:22:11.389Z,84.50
2022-10-31T04:24:41.527Z,84.20
2022-10-31T04:27:08.407Z,84.10
2022-10-31T04:29:35.121Z,84.60
2022-10-31T04:32:01.830Z,84.40
2022-10-31T04:34:28.524Z,84.40
2022-10-31T04:36:55.221Z,84.20
2022-10-31T04:39:25.757Z,85.70
2022-10-31T04:41:53.611Z,86.30
2022-10-31T04:44:20.359Z,87.00
2022-10-31T04:46:47.169Z,86.60
2022-10-31T04:49:14.038Z,87.60
2022-10-31T04:51:40.803Z,88.10
2022-10-31T04:54:07.748Z,89.60
2022-10-31T04:56:34.451Z,90.10
2022-10-31T04:59:01.274Z,89.30
2022-10-31T05:01:29.024Z,88.80
2022-10-31T05:03:55.934Z,88.60
2022-10-31T05:06:22.725Z,87.70
2022-10-31T05:08:49.485Z,86.90
2022-10-31T05:11:16.207Z,86.70
2022-10-31T05:13:42.987Z,86.00
2022-10-31T05:16:09.843Z,85.90
2022-10-31T05:18:36.655Z,85.80
2022-10-31T05:21:03.496Z,85.10
2022-10-31T05:23:30.274Z,83.50
2022-10-31T05:25:56.959Z,83.70
2022-10-31T05:28:23.665Z,83.50
2022-10-31T05:30:50.700Z,83.30
2022-10-31T05:33:17.405Z,83.30
2022-10-31T05:35:44.145Z,84.40
2022-10-31T05:38:10.823Z,84.60
2022-10-31T05:40:37.528Z,84.60
2022-10-31T05:43:04.428Z,85.30
2022-10-31T05:45:31.114Z,85.50
2022-10-31T05:48:00.125Z,85.00
2022-10-31T05:50:29.083Z,83.90
2022-10-31T05:53:05.511Z,84.20
2022-10-31T05:55:33.262Z,84.00
2022-10-31T05:58:00.677Z,83.70
2022-10-31T06:00:28.583Z,82.60
2022-10-31T06:03:03.331Z,83.40
2022-10-31T06:05:30.771Z,83.40
2022-10-31T06:07:58.625Z,83.90
2022-10-31T06:10:27.035Z,84.40
2022-10-31T06:12:53.870Z,84.60
2022-10-31T06:15:24.094Z,84.70
2022-10-31T06:18:05.546Z,84.80
2022-10-31T06:20:33.725Z,85.30
2022-10-31T06:23:00.753Z,85.10
2022-10-31T06:25:28.222Z,85.40
2022-10-31T06:27:55.425Z,85.50
2022-10-31T06:30:22.314Z,85.30
2022-10-31T06:32:50.384Z,85.70
2022-10-31T06:35:17.521Z,85.90
2022-10-31T06:37:46.786Z,86.60
2022-10-31T06:40:16.444Z,87.10
2022-10-31T06:42:43.192Z,85.40
2022-10-31T06:45:10.012Z,84.90
2022-10-31T06:47:50.833Z,84.10
2022-10-31T06:50:24.193Z,83.80
2022-10-31T06:52:55.754Z,83.60
2022-10-31T06:55:23.662Z,83.30
2022-10-31T06:57:52.091Z,83.00
2022-10-31T07:00:19.265Z,82.90
2022-10-31T07:02:56.784Z,82.60
2022-10-31T07:05:23.784Z,82.60
2022-10-31T07:07:55.711Z,82.70
2022-10-31T07:10:23.279Z,82.60
2022-10-31T07:12:54.498Z,83.00
2022-10-31T07:15:21.310Z,83.90
2022-10-31T07:17:48.008Z,82.60
2022-10-31T07:20:14.837Z,80.50
2022-10-31T07:22:41.570Z,79.00
2022-10-31T07:25:08.690Z,75.90
2022-10-31T07:27:42.594Z,74.60
2022-10-31T07:30:12.070Z,72.70
2022-10-31T07:32:43.584Z,70.20
2022-10-31T07:35:13.126Z,67.00
2022-10-31T07:37:40.134Z,64.90
2022-10-31T07:40:09.076Z,64.40
2022-10-31T07:42:43.965Z,62.60
2022-10-31T07:45:12.992Z,62.50
2022-10-31T07:47:44.823Z,60.10
2022-10-31T07:50:15.009Z,60.30
2022-10-31T07:52:41.783Z,59.60
2022-10-31T07:55:09.639Z,59.20
2022-10-31T07:57:37.856Z,58.60
2022-10-31T08:00:09.564Z,58.70
2022-10-31T08:02:36.917Z,58.10
2022-10-31T08:05:03.838Z,58.10
2022-10-31T08:07:30.751Z,58.30
2022-10-31T08:09:57.603Z,57.50
2022-10-31T08:12:24.507Z,58.50
2022-10-31T08:14:51.351Z,58.20
2022-10-31T08:17:18.059Z,59.10
2022-10-31T08:19:44.768Z,58.90
2022-10-31T08:22:11.478Z,59.20
2022-10-31T08:27:06.061Z,58.30
2022-10-31T08:29:32.750Z,58.10
2022-10-31T08:31:59.942Z,59.20
2022-10-31T08:34:27.064Z,59.00
2022-10-31T08:36:53.825Z,59.20
2022-10-31T08:39:20.579Z,58.50
2022-10-31T08:41:47.292Z,59.10
2022-10-31T08:44:14.226Z,59.30
2022-10-31T08:46:40.959Z,59.00
2022-10-31T08:49:07.747Z,58.90
2022-10-31T08:51:34.537Z,58.60
2022-10-31T08:54:01.390Z,58.00
2022-10-31T08:56:28.158Z,58.90
2022-10-31T08:58:55.037Z,59.40
2022-10-31T09:01:21.879Z,59.10
2022-10-31T09:03:48.706Z,58.90
2022-10-31T09:06:15.683Z,58.50
2022-10-31T09:08:42.521Z,57.80
2022-10-31T09:11:09.305Z,57.80
2022-10-31T09:13:40.991Z,58.10
2022-10-31T09:16:08.502Z,58.20
2022-10-31T09:18:35.333Z,58.40
2022-10-31T09:21:02.246Z,58.30
2022-10-31T09:23:29.330Z,58.70
2022-10-31T09:25:56.786Z,59.80
2022-10-31T09:28:27.622Z,59.70
2022-10-31T09:30:55.660Z,59.20
2022-10-31T09:33:22.800Z,58.80
2022-10-31T09:35:49.936Z,58.60
2022-10-31T09:38:24.357Z,58.30
2022-10-31T09:41:29.655Z,57.90
2022-10-31T09:44:19.648Z,58.20
2022-10-31T09:47:11.340Z,57.20
2022-10-31T09:50:07.023Z,57.10
2022-10-31T09:52:36.678Z,56.90
2022-10-31T09:55:13.118Z,56.70
2022-10-31T09:57:42.237Z,56.10
2022-10-31T10:00:17.092Z,55.80
2022-10-31T10:03:05.894Z,55.50
2022-10-31T10:05:40.410Z,55.10
2022-10-31T10:08:27.548Z,54.30
2022-10-31T10:11:15.571Z,55.10
2022-10-31T10:14:23.742Z,55.70
2022-10-31T10:17:09.181Z,56.80
2022-10-31T10:19:57.735Z,56.10
2022-10-31T10:22:35.211Z,55.70
2022-10-31T10:25:13.900Z,56.50
2022-10-31T10:28:24.334Z,55.70
2022-10-31T10:31:08.820Z,57.30
2022-10-31T10:33:41.245Z,59.30
2022-10-31T10:36:15.401Z,59.40
2022-10-31T10:38:56.230Z,58.90
2022-10-31T10:41:24.859Z,59.00
2022-10-31T10:43:52.727Z,60.30
2022-10-31T10:46:44.888Z,59.80
2022-10-31T10:49:30.649Z,60.00
2022-10-31T10:52:40.392Z,59.30
2022-10-31T10:55:25.721Z,59.00
2022-10-31T10:58:05.635Z,58.90
2022-10-31T11:00:43.572Z,59.20
2022-10-31T11:03:11.683Z,60.30
2022-10-31T11:05:59.871Z,60.30
2022-10-31T11:08:31.671Z,60.10
2022-10-31T11:11:18.619Z,62.00
2022-10-31T11:13:48.205Z,62.50
2022-10-31T11:16:29.443Z,64.00
2022-10-31T11:19:27.413Z,64.00
2022-10-31T11:21:54.833Z,63.60
2022-10-31T11:24:24.258Z,64.60
2022-10-31T11:26:52.303Z,64.90
2022-10-31T11:29:25.857Z,64.30
2022-10-31T11:31:54.619Z,63.80
2022-10-31T11:34:34.145Z,64.00
2022-10-31T11:37:17.178Z,64.70
2022-10-31T11:39:54.781Z,64.30
2022-10-31T11:42:28.351Z,63.90
2022-10-31T11:44:56.619Z,63.40
2022-10-31T11:47:33.657Z,63.50
2022-10-31T11:50:09.349Z,63.00
2022-10-31T11:52:41.186Z,63.90
2022-10-31T11:55:14.004Z,64.60
2022-10-31T11:57:49.388Z,64.40
2022-10-31T12:00:34.198Z,65.60
2022-10-31T12:03:38.026Z,65.80
2022-10-31T12:06:35.416Z,66.90
2022-10-31T12:09:02.168Z,67.60
2022-10-31T12:11:44.513Z,68.30
2022-10-31T12:14:33.047Z,68.70
2022-10-31T12:17:08.121Z,68.10
2022-10-31T12:20:01.368Z,67.10
2022-10-31T12:22:40.955Z,68.00
2022-10-31T12:25:32.607Z,70.10
2022-10-31T12:28:23.908Z,70.90
2022-10-31T12:31:08.658Z,70.40
2022-10-31T12:33:53.542Z,69.10
2022-10-31T12:36:20.213Z,69.00
2022-10-31T12:39:03.299Z,69.90
2022-10-31T12:41:40.329Z,69.90
2022-10-31T12:44:20.388Z,69.70
2022-10-31T12:47:08.633Z,70.50
2022-10-31T12:49:48.624Z,70.40
2022-10-31T12:52:18.318Z,71.20
2022-10-31T12:55:15.166Z,71.00
2022-10-31T12:57:51.935Z,70.30
2022-10-31T13:00:20.812Z,70.40
2022-10-31T13:02:55.878Z,70.80
2022-10-31T13:05:37.035Z,70.70
2022-10-31T13:08:17.373Z,70.60
2022-10-31T13:10:52.121Z,70.70
2022-10-31T13:13:39.414Z,71.30
2022-10-31T13:16:18.465Z,71.70
2022-10-31T13:19:00.747Z,71.30
2022-10-31T13:21:42.397Z,71.40
2022-10-31T13:24:19.378Z,71.70
2022-10-31T13:26:58.725Z,73.10
2022-10-31T13:29:43.652Z,73.50
2022-10-31T13:32:11.433Z,74.30
2022-10-31T13:34:43.380Z,74.60
2022-10-31T13:37:22.532Z,75.50
2022-10-31T13:40:21.284Z,76.20
2022-10-31T13:42:54.869Z,76.00
2022-10-31T13:45:24.564Z,75.00
2022-10-31T13:48:20.446Z,75.00
2022-10-31T13:51:03.142Z,73.90
2022-10-31T13:53:58.481Z,74.20
2022-10-31T13:56:35.510Z,73.30
2022-10-31T13:59:11.167Z,74.20
2022-10-31T14:01:46.797Z,75.10
2022-10-31T14:04:25.523Z,75.40
2022-10-31T14:07:00.372Z,76.50
2022-10-31T14:09:34.777Z,77.30
2022-10-31T14:12:06.454Z,77.60
2022-10-31T14:14:45.465Z,77.60
2022-10-31T14:17:21.117Z,76.90
2022-10-31T14:20:17.451Z,76.80
2022-10-31T14:22:44.292Z,78.00
2022-10-31T14:25:31.523Z,79.30
2022-10-31T14:28:00.608Z,79.30
2022-10-31T14:30:29.427Z,79.40
2022-10-31T14:33:13.069Z,80.40
2022-10-31T14:36:07.688Z,80.20
2022-10-31T14:39:11.903Z,80.80
2022-10-31T14:41:53.039Z,81.00
2022-10-31T14:45:00.669Z,80.70
2022-10-31T14:47:40.422Z,81.90
2022-10-31T14:50:45.601Z,82.00
2022-10-31T14:53:23.544Z,82.80
2022-10-31T14:55:53.379Z,82.40
2022-10-31T14:58:25.241Z,82.90
2022-10-31T15:00:56.866Z,83.80
2022-10-31T15:03:39.487Z,83.80
2022-10-31T15:06:16.692Z,82.70
2022-10-31T15:08:50.193Z,83.70
2022-10-31T15:11:22.790Z,84.00
2022-10-31T15:13:54.770Z,85.20
2022-10-31T15:19:06.800Z,86.50
2022-10-31T15:21:35.509Z,86.80
2022-10-31T15:24:03.555Z,87.30
2022-10-31T15:26:38.852Z,86.40
2022-10-31T15:29:12.156Z,86.60
2022-10-31T15:31:38.895Z,86.20
2022-10-31T15:34:20.214Z,86.90
2022-10-31T15:36:50.982Z,86.90
2022-10-31T15:39:18.323Z,86.70
2022-10-31T15:41:54.442Z,87.10
2022-10-31T15:44:37.163Z,87.40
2022-10-31T15:47:16.908Z,88.40
2022-10-31T15:49:53.914Z,89.60
2022-10-31T15:52:29.828Z,90.50
2022-10-31T15:55:01.210Z,90.80
2022-10-31T15:57:28.484Z,90.90
2022-10-31T15:59:56.066Z,91.00
2022-10-31T16:02:25.473Z,91.30
2022-10-31T16:04:58.526Z,91.30
2022-10-31T16:07:26.008Z,90.90
2022-10-31T16:10:04.560Z,90.50
2022-10-31T16:12:37.277Z,90.40
2022-10-31T16:15:06.104Z,90.20
2022-10-31T16:17:33.346Z,90.00
2022-10-31T16:20:06.242Z,90.10
2022-10-31T16:22:38.432Z,90.40
2022-10-31T16:25:15.083Z,91.40
2022-10-31T16:27:54.039Z,92.30
2022-10-31T16:30:48.001Z,92.10
2022-10-31T16:33:37.736Z,92.30
2022-10-31T16:36:36.619Z,92.70
2022-10-31T16:39:04.285Z,92.80
2022-10-31T16:41:39.512Z,92.80
2022-10-31T16:44:14.116Z,92.90
2022-10-31T16:46:40.894Z,92.80
2022-10-31T16:49:10.238Z,92.80
2022-10-31T16:51:37.133Z,92.50
2022-10-31T16:54:03.946Z,92.30
2022-10-31T16:56:33.542Z,92.90
2022-10-31T16:59:03.741Z,93.40
2022-10-31T17:01:31.552Z,93.40
2022-10-31T17:03:58.578Z,93.40
2022-10-31T17:06:28.482Z,94.10
2022-10-31T17:08:55.652Z,94.20
2022-10-31T17:11:27.065Z,94.30
2022-10-31T17:13:55.445Z,94.30
2022-10-31T17:16:22.205Z,94.40
2022-10-31T17:18:49.023Z,94.70
2022-10-31T17:21:23.639Z,94.70
2022-10-31T17:23:51.797Z,94.70
2022-10-31T17:26:19.627Z,94.30
2022-10-31T17:28:46.654Z,94.40
2022-10-31T17:31:27.523Z,94.40
2022-10-31T17:34:02.198Z,94.30
2022-10-31T17:36:30.444Z,93.90
2022-10-31T17:38:57.217Z,94.00
2022-10-31T17:41:23.901Z,94.10
2022-10-31T17:44:01.283Z,94.10
2022-10-31T17:46:28.841Z,94.20
2022-10-31T17:48:55.655Z,94.20
2022-10-31T17:51:22.468Z,93.90
2022-10-31T17:53:49.233Z,94.00
2022-10-31T17:56:16.003Z,94.00
2022-10-31T17:58:43.003Z,93.90
2022-10-31T18:01:15.593Z,93.80
2022-10-31T18:03:42.442Z,93.60
2022-10-31T18:06:10.722Z,94.10
2022-10-31T18:08:39.924Z,94.50
2022-10-31T18:11:12.144Z,94.40
2022-10-31T18:13:39.301Z,94.50
2022-10-31T18:16:15.356Z,94.40
2022-10-31T18:18:42.050Z,94.70
2022-10-31T18:21:08.979Z,94.70
2022-10-31T18:23:35.754Z,95.20
2022-10-31T18:26:02.786Z,94.80
2022-10-31T18:28:29.630Z,94.60
2022-10-31T18:31:00.482Z,94.60
2022-10-31T18:33:27.650Z,94.50
2022-10-31T18:35:54.704Z,94.30
2022-10-31T18:38:21.709Z,94.40
2022-10-31T18:40:48.454Z,94.50
2022-10-31T18:43:15.217Z,94.40
2022-10-31T18:45:46.972Z,94.40
2022-10-31T18:48:15.903Z,93.80
2022-10-31T18:50:43.439Z,94.50
2022-10-31T18:53:10.701Z,94.80
2022-10-31T18:55:45.387Z,94.60
2022-10-31T18:58:16.520Z,94.50
2022-10-31T19:00:43.404Z,94.70
2022-10-31T19:03:10.375Z,94.90
2022-10-31T19:05:37.212Z,95.10
2022-10-31T19:08:04.433Z,95.00
2022-10-31T19:10:31.281Z,94.90
2022-10-31T19:12:58.251Z,94.50
2022-10-31T19:15:26.068Z,94.10
2022-10-31T19:17:52.884Z,94.50
2022-10-31T19:20:19.605Z,94.40
2022-10-31T19:22:46.410Z,94.90
2022-10-31T19:25:13.160Z,94.30
2022-10-31T19:27:40.162Z,94.20
2022-10-31T19:30:07.731Z,94.20
2022-10-31T19:32:34.875Z,94.10
2022-10-31T19:35:01.683Z,93.90
2022-10-31T19:37:28.731Z,93.70
2022-10-31T19:39:55.487Z,93.70
2022-10-31T19:42:22.262Z,93.90
2022-10-31T19:44:48.988Z,93.60
2022-10-31T19:47:15.898Z,93.50
2022-10-31T19:49:42.759Z,93.40
2022-10-31T19:52:09.528Z,93.30
2022-10-31T19:54:36.203Z,93.20
2022-10-31T19:57:02.939Z,93.10
2022-10-31T19:59:29.591Z,92.90
2022-10-31T20:01:56.386Z,92.70
2022-10-31T20:04:23.158Z,92.30
2022-10-31T20:06:50.070Z,92.30
2022-10-31T20:09:17.057Z,92.20
2022-10-31T20:11:45.568Z,91.90
2022-10-31T20:14:17.625Z,91.90
2022-10-31T20:16:45.357Z,91.90
2022-10-31T20:19:12.110Z,91.90
2022-10-31T20:21:40.961Z,92.20
2022-10-31T20:24:09.681Z,92.60
2022-10-31T20:26:38.155Z,92.40
2022-10-31T20:29:05.189Z,92.30
2022-10-31T20:31:34.703Z,92.30
2022-10-31T20:34:01.870Z,92.20
2022-10-31T20:36:31.423Z,92.40
2022-10-31T20:38:58.812Z,92.30
2022-10-31T20:41:25.947Z,91.90
2022-10-31T20:43:52.823Z,92.00
2022-10-31T20:46:23.427Z,91.70
2022-10-31T20:48:50.513Z,91.20
2022-10-31T20:51:22.714Z,91.00
2022-10-31T20:53:53.397Z,91.20
2022-10-31T20:56:22.262Z,91.10
2022-10-31T20:58:49.850Z,91.00
2022-10-31T21:01:19.523Z,91.00
2022-10-31T21:03:47.119Z,90.90
2022-10-31T21:06:14.873Z,90.80
2022-10-31T21:08:43.030Z,90.90
2022-10-31T21:11:12.200Z,90.90
2022-10-31T21:13:41.390Z,90.80
2022-10-31T21:16:13.722Z,91.30
2022-10-31T21:18:42.322Z,91.70
2022-10-31T21:21:18.555Z,91.70
2022-10-31T21:23:46.138Z,92.20
2022-10-31T21:26:23.706Z,92.50
2022-10-31T21:28:52.818Z,92.80
2022-10-31T21:31:19.786Z,92.70
2022-10-31T21:33:47.345Z,93.00
2022-10-31T21:36:14.844Z,93.20
2022-10-31T21:38:41.893Z,92.90
2022-10-31T21:41:13.918Z,92.90
2022-10-31T21:43:42.963Z,93.00
2022-10-31T21:46:19.069Z,93.30
2022-10-31T21:48:46.496Z,93.60
2022-10-31T21:51:15.614Z,93.90
2022-10-31T21:54:01.233Z,94.10
2022-10-31T21:56:28.424Z,94.10
2022-10-31T21:58:55.595Z,94.20
2022-10-31T22:01:29.622Z,94.20
2022-10-31T22:03:57.187Z,93.90
2022-10-31T22:06:26.669Z,94.00
2022-10-31T22:08:54.673Z,94.00
2022-10-31T22:11:21.724Z,93.90
2022-10-31T22:13:49.993Z,94.10
2022-10-31T22:16:21.653Z,93.90
2022-10-31T22:18:53.220Z,94.30
2022-10-31T22:21:23.772Z,94.50
2022-10-31T22:24:01.900Z,94.30
2022-10-31T22:26:32.461Z,94.20
2022-10-31T22:29:02.359Z,94.30
2022-10-31T22:31:31.055Z,94.00
2022-10-31T22:33:58.525Z,94.20
2022-10-31T22:36:28.150Z,94.10
2022-10-31T22:38:55.034Z,93.90
2022-10-31T22:41:24.265Z,94.60
2022-10-31T22:43:51.128Z,94.20
2022-10-31T22:46:20.402Z,94.20
2022-10-31T22:48:53.690Z,94.40
2022-10-31T22:51:26.033Z,94.40
2022-10-31T22:53:53.265Z,94.30
2022-10-31T22:56:22.199Z,94.10
2022-10-31T22:58:49.582Z,94.60
2022-10-31T23:01:19.020Z,94.90
2022-10-31T23:03:46.598Z,95.10
2022-10-31T23:06:20.250Z,95.00
2022-10-31T23:08:48.133Z,95.20
2022-10-31T23:11:17.826Z,94.90
2022-10-31T23:14:07.412Z,94.80
2022-10-31T23:16:35.271Z,94.60
2022-10-31T23:19:07.637Z,94.50
2022-10-31T23:21:56.332Z,94.40
2022-10-31T23:24:28.028Z,94.40
2022-10-31T23:27:09.220Z,94.60
2022-10-31T23:29:35.980Z,94.40
2022-10-31T23:32:03.774Z,94.40
2022-10-31T23:34:30.659Z,94.30
2022-10-31T23:36:57.576Z,94.10
2022-10-31T23:39:25.237Z,94.10
2022-10-31T23:41:52.334Z,93.70
2022-10-31T23:44:19.132Z,93.30
2022-10-31T23:46:46.025Z,93.30
2022-10-31T23:49:12.866Z,93.50
2022-10-31T23:51:40.059Z,93.60
2022-10-31T23:54:06.942Z,93.80
2022-10-31T23:56:33.887Z,93.80
2022-10-31T23:59:00.810Z,93.90
